Accueil
METAR-TAF:

METAR-TAF

Aéroports :

Aéroport international Léopold-Sédar-Senghor

Dakar, Sénégal

latitude: 14-44N, longitude: 017-30W, altitude: 27 m

Observation

Le bulletin a été fait il y a 54 minutes, à 13:00 UTC
Vent 6 kt de ouest
Température 31°C
Humidité 75%
Pression 1010 hPa
Visibilité: 8000 m
Nuages fragmentés à une hauteur de 1100 ft

METAR: GOOY 061300Z 28006KT 8000 BKN011 31/26 Q1010

Heure: 13:54 (13:54 UTC)

Prévision

Le bulletin a été fait il y a 8 heures et 54 minutes, à 05:00 UTC
Prévision valable du 06 à 06 UTC au 07 à 12 UTC
Vent 8 kt de ouest
Visibilité 10 km ou plus
Nuages épars à une hauteur de 1300 ft

TAF: GOOY 060500Z 0606/0712 26008KT 9999 SCT013

Observations et prévisions météorologiques de plus de 4000 aéroports (messages METAR et TAF).

Les stations disponibles sont représentées par des disques jaunes et rouges sur la carte.

Passer la souris dessus pour voir le nom de la station.

Cliquer dessus pour voir les observations et prévisions météorologiques.

Pour changer de carte: cliquez sur les boutons verts avec une croix noire pour zoomer, sur le bouton vert avec un tiret pour effectuer un zoom arrière, ou sur les flèches vertes pour les cartes adjacentes.


METAR-TAF: